Time;durP1;ratioP1;P1;durP2;ratioP2;P2;SDS_P1;SDS_P2;PMS_P1;PMS_P2;Temp;Humidity;BMP_temperature;BMP_pressure;BME280_temperature;BME280_humidity;BME280_pressure;Samples;Min_cycle;Max_cycle;Signal;HPM_P1;HPM_P2
2024/01/05 00:01:22;;;;;;;22.17;11.35;;;2.00;99.90;;;;;;5031298;28;20382;-75
2024/01/05 00:03:48;;;;;;;18.92;10.90;;;1.90;99.90;;;;;;5030208;28;20053;-74
2024/01/05 00:06:13;;;;;;;20.15;10.95;;;1.90;99.90;;;;;;5031625;28;20032;-74
2024/01/05 00:08:39;;;;;;;16.60;10.50;;;1.90;99.90;;;;;;5014068;28;20026;-73
2024/01/05 00:11:04;;;;;;;21.58;10.43;;;2.00;99.90;;;;;;5030994;28;20029;-75
2024/01/05 00:13:30;;;;;;;19.85;9.43;;;2.00;99.90;;;;;;5030698;28;20028;-75
2024/01/05 00:15:55;;;;;;;15.57;8.68;;;2.00;99.90;;;;;;5030748;28;20436;-73
2024/01/05 00:18:21;;;;;;;15.27;8.73;;;2.00;99.90;;;;;;5030479;28;20056;-74
2024/01/05 00:20:47;;;;;;;12.35;8.23;;;2.00;99.90;;;;;;5030883;28;20469;-74
2024/01/05 00:23:12;;;;;;;17.58;7.85;;;2.00;99.90;;;;;;5030322;28;20071;-74
2024/01/05 00:25:38;;;;;;;14.27;7.90;;;2.00;99.90;;;;;;5030536;28;20036;-75
2024/01/05 00:28:04;;;;;;;14.07;7.75;;;2.00;99.90;;;;;;5030843;28;20030;-75
2024/01/05 00:30:29;;;;;;;15.75;7.88;;;2.00;99.90;;;;;;5030514;28;20103;-75
2024/01/05 00:32:55;;;;;;;16.70;8.02;;;2.00;99.90;;;;;;5030483;28;20021;-74
2024/01/05 00:35:20;;;;;;;14.23;8.15;;;2.00;99.90;;;;;;5013989;28;20067;-73
2024/01/05 00:37:46;;;;;;;14.43;8.07;;;1.90;99.90;;;;;;5032192;28;20036;-73
2024/01/05 00:40:12;;;;;;;13.80;7.30;;;2.00;99.90;;;;;;5031743;28;20029;-74
2024/01/05 00:42:37;;;;;;;12.30;7.90;;;1.90;99.90;;;;;;5030217;28;20037;-73
2024/01/05 00:45:04;;;;;;;15.48;8.05;;;2.00;99.90;;;;;;5030108;28;20369;-73
2024/01/05 00:47:30;;;;;;;15.68;8.43;;;2.00;99.90;;;;;;5014086;28;20025;-73
2024/01/05 00:49:55;;;;;;;15.13;8.20;;;2.00;99.90;;;;;;5030600;28;20511;-74
2024/01/05 00:52:21;;;;;;;16.05;7.68;;;2.00;99.90;;;;;;5029905;28;20323;-73
2024/01/05 00:54:48;;;;;;;16.42;7.97;;;2.00;99.90;;;;;;5030077;28;20025;-72
2024/01/05 00:57:13;;;;;;;15.27;8.38;;;2.00;99.90;;;;;;5033388;28;20022;-73
2024/01/05 00:59:39;;;;;;;19.13;7.72;;;1.90;99.90;;;;;;5037220;28;20109;-72
2024/01/05 01:02:05;;;;;;;14.07;8.50;;;1.90;99.90;;;;;;5025823;28;20037;-73
2024/01/05 01:04:30;;;;;;;14.93;9.55;;;1.80;99.90;;;;;;5029749;28;20025;-74
2024/01/05 01:06:56;;;;;;;16.05;8.70;;;1.90;99.90;;;;;;5013200;28;20496;-74
2024/01/05 01:09:21;;;;;;;17.27;8.88;;;1.80;99.90;;;;;;5029913;28;20388;-74
2024/01/05 01:11:50;;;;;;;15.30;9.07;;;1.80;99.90;;;;;;5030236;28;20090;-73
2024/01/05 01:14:16;;;;;;;15.40;9.07;;;1.80;99.90;;;;;;5012687;28;20083;-72
2024/01/05 01:16:41;;;;;;;15.80;8.55;;;1.90;99.90;;;;;;5030467;28;20099;-74
2024/01/05 01:19:07;;;;;;;17.40;8.52;;;1.90;99.90;;;;;;5030477;28;20022;-74
2024/01/05 01:21:32;;;;;;;17.48;9.38;;;1.90;99.90;;;;;;5032373;28;20029;-72
2024/01/05 01:23:58;;;;;;;14.40;8.73;;;1.90;99.90;;;;;;5032965;28;20028;-73
2024/01/05 01:26:24;;;;;;;18.30;8.95;;;2.00;99.90;;;;;;5034380;28;20037;-72
2024/01/05 01:28:50;;;;;;;18.85;8.32;;;2.00;99.90;;;;;;5016363;28;20503;-73
2024/01/05 01:31:15;;;;;;;16.77;8.07;;;2.00;99.90;;;;;;5033948;28;20028;-73
2024/01/05 01:33:41;;;;;;;14.48;8.00;;;2.00;99.90;;;;;;5033106;28;20412;-72
2024/01/05 01:36:07;;;;;;;17.27;9.13;;;1.90;99.90;;;;;;5033212;28;20549;-74
2024/01/05 01:38:32;;;;;;;23.88;10.77;;;1.90;99.90;;;;;;5033852;28;20033;-73
2024/01/05 01:40:58;;;;;;;19.13;8.52;;;1.90;99.90;;;;;;5033775;28;20469;-74
2024/01/05 01:43:27;;;;;;;15.35;9.00;;;1.90;99.90;;;;;;5033245;28;20048;-74
2024/01/05 01:45:56;;;;;;;14.65;7.72;;;1.90;99.90;;;;;;5016446;28;20022;-73
2024/01/05 01:48:23;;;;;;;13.15;7.70;;;1.90;99.90;;;;;;5033304;28;20072;-74
2024/01/05 01:50:50;;;;;;;16.13;8.45;;;1.80;99.90;;;;;;5017847;28;20021;-72
2024/01/05 01:53:18;;;;;;;16.15;8.18;;;1.80;99.90;;;;;;5034952;28;20592;-73
2024/01/05 01:55:46;;;;;;;14.10;7.90;;;1.90;99.90;;;;;;5015960;28;20538;-75
2024/01/05 01:58:14;;;;;;;12.38;7.85;;;1.90;99.90;;;;;;5033513;28;20500;-73
2024/01/05 02:00:40;;;;;;;14.48;7.97;;;1.90;99.90;;;;;;5033542;28;20374;-74
2024/01/05 02:03:06;;;;;;;12.43;8.02;;;1.90;99.90;;;;;;5032302;28;20040;-72
2024/01/05 02:05:32;;;;;;;16.92;7.93;;;1.90;99.90;;;;;;5033294;28;20028;-73
2024/01/05 02:07:57;;;;;;;16.45;8.15;;;1.90;99.90;;;;;;5033225;28;20021;-74
2024/01/05 02:10:23;;;;;;;12.45;8.32;;;1.90;99.90;;;;;;5033404;28;20563;-73
2024/01/05 02:12:49;;;;;;;16.58;8.60;;;1.90;99.90;;;;;;5032476;28;20096;-74
2024/01/05 02:15:15;;;;;;;16.98;8.60;;;1.90;99.90;;;;;;5036463;28;20025;-73
2024/01/05 02:17:41;;;;;;;14.93;8.40;;;1.90;99.90;;;;;;5033893;28;20105;-73
2024/01/05 02:20:07;;;;;;;18.80;8.52;;;2.00;99.90;;;;;;5051684;28;20040;-72
2024/01/05 02:22:35;;;;;;;18.40;8.15;;;1.90;99.90;;;;;;5053512;28;20055;-73
2024/01/05 02:25:01;;;;;;;13.23;8.75;;;1.90;99.90;;;;;;5053384;28;20094;-73
2024/01/05 02:27:27;;;;;;;19.05;8.52;;;1.90;99.90;;;;;;5053856;28;20036;-72
2024/01/05 02:29:53;;;;;;;13.55;8.45;;;1.90;99.90;;;;;;5051934;28;20021;-72
2024/01/05 02:32:18;;;;;;;18.17;8.32;;;1.90;99.90;;;;;;5034192;28;20060;-73
2024/01/05 02:34:44;;;;;;;13.73;8.82;;;1.90;99.90;;;;;;5034355;28;20033;-74
2024/01/05 02:37:10;;;;;;;13.82;8.52;;;1.90;99.90;;;;;;5034676;28;20037;-72
2024/01/05 02:39:36;;;;;;;21.77;9.32;;;1.90;99.90;;;;;;5016004;28;20599;-73
2024/01/05 02:42:01;;;;;;;15.65;9.40;;;1.90;99.90;;;;;;5036056;28;20436;-74
2024/01/05 02:44:27;;;;;;;16.73;9.60;;;1.90;99.90;;;;;;5036012;28;20038;-72
2024/01/05 02:46:53;;;;;;;16.63;9.32;;;1.90;99.90;;;;;;5053771;28;20030;-74
2024/01/05 02:49:18;;;;;;;15.93;9.40;;;1.90;99.90;;;;;;5054975;28;20052;-73
2024/01/05 02:51:44;;;;;;;16.75;9.50;;;1.90;99.90;;;;;;5053914;28;20026;-73
2024/01/05 02:54:10;;;;;;;20.42;9.55;;;1.90;99.90;;;;;;5061936;28;20039;-74
2024/01/05 02:56:35;;;;;;;16.45;8.95;;;1.90;99.90;;;;;;5073897;28;20047;-72
2024/01/05 02:59:04;;;;;;;25.17;10.40;;;1.90;99.90;;;;;;5068010;28;20025;-73
2024/01/05 03:01:30;;;;;;;17.42;10.68;;;1.90;99.90;;;;;;5072493;28;20092;-73
2024/01/05 03:03:57;;;;;;;18.30;9.52;;;2.00;99.90;;;;;;5052898;28;20021;-74
2024/01/05 03:06:23;;;;;;;21.65;9.75;;;2.00;99.90;;;;;;5052189;28;20024;-75
2024/01/05 03:08:48;;;;;;;16.27;9.48;;;2.00;99.90;;;;;;5051799;28;20035;-74
2024/01/05 03:11:14;;;;;;;18.45;9.68;;;2.00;99.90;;;;;;5052281;28;20055;-75
2024/01/05 03:13:39;;;;;;;20.88;9.38;;;2.00;99.90;;;;;;5050887;28;20031;-73
2024/01/05 03:16:05;;;;;;;22.77;10.75;;;2.10;99.90;;;;;;5035043;28;20076;-75
2024/01/05 03:18:31;;;;;;;21.20;9.88;;;2.10;99.90;;;;;;5031946;28;20025;-74
2024/01/05 03:20:56;;;;;;;22.48;8.90;;;2.10;99.90;;;;;;5031579;28;20029;-74
2024/01/05 03:23:22;;;;;;;20.92;10.45;;;2.10;99.90;;;;;;5031575;28;20037;-73
2024/01/05 03:25:48;;;;;;;17.30;9.65;;;2.10;99.90;;;;;;5031588;28;20034;-73
2024/01/05 03:28:14;;;;;;;19.70;10.43;;;2.10;99.90;;;;;;5031549;28;20040;-73
2024/01/05 03:30:41;;;;;;;20.90;10.95;;;2.10;99.90;;;;;;5032133;28;20021;-74
2024/01/05 03:33:07;;;;;;;18.30;11.25;;;2.10;99.90;;;;;;5031851;28;20018;-73
2024/01/05 03:35:33;;;;;;;18.50;10.13;;;2.10;99.90;;;;;;5033631;28;20037;-74
2024/01/05 03:37:59;;;;;;;22.35;10.70;;;2.10;99.90;;;;;;5032387;28;20075;-77
2024/01/05 03:40:24;;;;;;;27.38;11.57;;;2.10;99.90;;;;;;5014141;28;20025;-73
2024/01/05 03:42:50;;;;;;;23.15;11.32;;;2.10;99.90;;;;;;5032187;28;20374;-73
2024/01/05 03:45:16;;;;;;;26.08;10.93;;;2.10;99.90;;;;;;5031914;28;20021;-73
2024/01/05 03:47:41;;;;;;;27.88;12.23;;;2.20;99.90;;;;;;5032479;28;20018;-72
2024/01/05 03:50:08;;;;;;;20.33;10.98;;;2.10;99.90;;;;;;5033209;28;20465;-74
2024/01/05 03:52:34;;;;;;;22.05;11.15;;;2.20;99.90;;;;;;5017243;28;20029;-74
2024/01/05 03:55:01;;;;;;;25.15;11.95;;;2.20;99.90;;;;;;5015786;28;20037;-74
2024/01/05 03:57:27;;;;;;;28.73;11.85;;;2.20;99.90;;;;;;5042743;28;20020;-73
2024/01/05 03:59:53;;;;;;;23.52;11.35;;;2.20;99.90;;;;;;5055922;28;20033;-73
2024/01/05 04:02:18;;;;;;;23.75;11.60;;;2.20;99.90;;;;;;5038598;28;20013;-74
2024/01/05 04:04:44;;;;;;;26.48;11.23;;;2.20;99.90;;;;;;5053101;28;20049;-74
2024/01/05 04:07:10;;;;;;;23.38;11.73;;;2.20;99.90;;;;;;5034049;28;20485;-73
2024/01/05 04:09:36;;;;;;;22.75;10.95;;;2.20;99.90;;;;;;5032150;28;20068;-73
2024/01/05 04:12:02;;;;;;;24.17;11.50;;;2.10;99.90;;;;;;5031945;28;20369;-73
2024/01/05 04:14:27;;;;;;;23.63;11.25;;;2.10;99.90;;;;;;5032376;28;20083;-76
2024/01/05 04:16:53;;;;;;;29.20;12.35;;;2.20;99.90;;;;;;5032710;28;20021;-74
2024/01/05 04:19:18;;;;;;;23.85;11.32;;;2.20;99.90;;;;;;5033093;28;20028;-74
2024/01/05 04:21:44;;;;;;;20.55;11.77;;;2.10;99.90;;;;;;5031988;28;20056;-77
2024/01/05 04:24:11;;;;;;;19.83;11.32;;;2.10;99.90;;;;;;5032093;28;20028;-73
2024/01/05 04:26:36;;;;;;;22.60;11.65;;;2.10;99.90;;;;;;5031809;28;20488;-74
2024/01/05 04:29:02;;;;;;;22.77;11.95;;;2.10;99.90;;;;;;5031723;28;20473;-74
2024/01/05 04:31:28;;;;;;;23.38;12.10;;;2.10;99.90;;;;;;5014122;28;20116;-73
2024/01/05 04:33:56;;;;;;;28.35;12.40;;;2.10;99.90;;;;;;5031486;28;20033;-73
2024/01/05 04:36:22;;;;;;;21.33;11.95;;;2.10;99.90;;;;;;5031791;28;20377;-73
2024/01/05 04:38:47;;;;;;;26.80;13.02;;;2.10;99.90;;;;;;5028881;28;20040;-76
2024/01/05 04:41:17;;;;;;;25.63;12.48;;;2.00;99.90;;;;;;5035284;28;20025;-77
2024/01/05 04:43:44;;;;;;;26.67;12.45;;;2.00;99.90;;;;;;5024542;28;20041;-77
2024/01/05 04:46:10;;;;;;;25.02;13.45;;;2.00;99.90;;;;;;5029580;28;20416;-75
2024/01/05 04:48:36;;;;;;;30.85;13.00;;;1.90;99.90;;;;;;5032510;28;20014;-76
2024/01/05 04:51:02;;;;;;;24.08;12.68;;;1.90;99.90;;;;;;5039925;28;20030;-78
2024/01/05 04:53:28;;;;;;;25.00;13.55;;;1.90;99.90;;;;;;5032076;28;20022;-76
2024/01/05 04:55:53;;;;;;;25.40;13.43;;;1.80;99.90;;;;;;5013953;28;20029;-77
2024/01/05 04:58:19;;;;;;;24.58;13.18;;;1.80;99.90;;;;;;5036747;28;20459;-76
2024/01/05 05:00:45;;;;;;;33.08;14.10;;;1.90;99.90;;;;;;5036487;28;20026;-78
2024/01/05 05:03:13;;;;;;;25.48;12.90;;;1.80;99.90;;;;;;5036852;28;20489;-76
2024/01/05 05:05:39;;;;;;;26.05;13.13;;;1.80;99.90;;;;;;5034032;28;20021;-75
2024/01/05 05:08:05;;;;;;;26.77;12.95;;;1.90;99.90;;;;;;5017822;28;20071;-74
2024/01/05 05:10:30;;;;;;;24.75;12.65;;;1.80;99.90;;;;;;5035515;28;20108;-75
2024/01/05 05:12:56;;;;;;;26.52;14.27;;;1.90;99.90;;;;;;5035317;28;20481;-78
2024/01/05 05:15:22;;;;;;;24.77;13.75;;;1.90;99.90;;;;;;5035394;28;20029;-73
2024/01/05 05:17:47;;;;;;;23.27;13.30;;;1.90;99.90;;;;;;5036201;28;20480;-73
2024/01/05 05:20:13;;;;;;;21.95;12.93;;;2.00;99.90;;;;;;5018820;28;20496;-74
2024/01/05 05:22:39;;;;;;;22.63;12.73;;;2.00;99.90;;;;;;5035291;28;20228;-72
2024/01/05 05:25:05;;;;;;;22.30;11.68;;;2.00;99.90;;;;;;5034850;28;20045;-73
2024/01/05 05:27:31;;;;;;;24.83;12.15;;;2.00;99.90;;;;;;5034975;28;20025;-72
2024/01/05 05:29:57;;;;;;;22.98;11.80;;;2.00;99.90;;;;;;5035520;28;20026;-73
2024/01/05 05:32:23;;;;;;;21.30;11.02;;;1.90;99.90;;;;;;5037118;28;20097;-73
2024/01/05 05:34:49;;;;;;;21.42;11.75;;;2.00;99.90;;;;;;5035127;28;20816;-73
2024/01/05 05:37:15;;;;;;;20.67;10.77;;;2.00;99.90;;;;;;5032572;28;20060;-77
2024/01/05 05:39:40;;;;;;;23.17;10.95;;;2.00;99.90;;;;;;5034458;28;20048;-76
2024/01/05 05:42:06;;;;;;;19.60;11.23;;;1.90;99.90;;;;;;5035911;28;20485;-78
2024/01/05 05:44:32;;;;;;;22.48;11.30;;;1.90;99.90;;;;;;5052701;28;20022;-78
2024/01/05 05:46:57;;;;;;;21.70;11.25;;;1.80;99.90;;;;;;5045658;28;20040;-77
2024/01/05 05:49:23;;;;;;;19.40;10.93;;;1.90;99.90;;;;;;5049169;28;20035;-77
2024/01/05 05:51:48;;;;;;;19.55;10.82;;;1.90;99.90;;;;;;5047122;28;20017;-77
2024/01/05 05:54:14;;;;;;;18.52;11.13;;;1.90;99.90;;;;;;5029630;28;20065;-72
2024/01/05 05:56:40;;;;;;;19.40;11.38;;;2.00;99.90;;;;;;5034230;28;20048;-72
2024/01/05 05:59:06;;;;;;;17.15;10.05;;;1.90;99.90;;;;;;5034160;28;20552;-73
2024/01/05 06:01:32;;;;;;;19.23;10.63;;;1.90;99.90;;;;;;5036210;28;20101;-74
2024/01/05 06:03:57;;;;;;;20.50;10.20;;;1.80;99.90;;;;;;5000066;28;20021;-73
2024/01/05 06:06:24;;;;;;;22.73;10.10;;;1.90;99.90;;;;;;5034038;28;20033;-73
2024/01/05 06:08:53;;;;;;;20.15;10.80;;;1.90;99.90;;;;;;5034208;28;20225;-73
2024/01/05 06:11:19;;;;;;;18.58;10.95;;;1.90;99.90;;;;;;5034238;28;20485;-74
2024/01/05 06:13:45;;;;;;;23.90;11.02;;;1.90;99.90;;;;;;5033804;28;20087;-73
2024/01/05 06:16:12;;;;;;;20.23;10.65;;;1.90;99.90;;;;;;5035394;28;20064;-73
2024/01/05 06:18:38;;;;;;;21.63;11.15;;;1.80;99.90;;;;;;5016582;28;20029;-74
2024/01/05 06:21:04;;;;;;;21.85;10.55;;;1.90;99.90;;;;;;5034076;28;20025;-74
2024/01/05 06:23:30;;;;;;;16.90;9.63;;;1.80;99.90;;;;;;5033835;28;20044;-73
2024/01/05 06:25:56;;;;;;;21.08;9.95;;;1.90;99.90;;;;;;5033910;28;20035;-73
2024/01/05 06:28:22;;;;;;;16.08;9.77;;;1.90;99.90;;;;;;5033830;28;20106;-75
2024/01/05 06:30:47;;;;;;;18.25;10.32;;;1.80;99.90;;;;;;5034537;28;20021;-78
2024/01/05 06:33:13;;;;;;;20.67;10.32;;;1.90;99.90;;;;;;5031375;28;20022;-74
2024/01/05 06:35:38;;;;;;;16.23;10.25;;;1.90;99.90;;;;;;5034265;28;20124;-73
2024/01/05 06:38:04;;;;;;;19.60;9.85;;;1.90;99.90;;;;;;5038613;28;20087;-74
2024/01/05 06:40:30;;;;;;;18.27;9.50;;;1.90;99.90;;;;;;5041060;28;20107;-74
2024/01/05 06:42:57;;;;;;;18.08;9.82;;;1.90;99.90;;;;;;5031868;28;20022;-74
2024/01/05 06:45:26;;;;;;;17.52;11.10;;;1.90;99.90;;;;;;5035793;28;20030;-74
2024/01/05 06:47:51;;;;;;;17.52;9.32;;;1.90;99.90;;;;;;5040014;28;20132;-74
2024/01/05 06:50:17;;;;;;;17.10;9.45;;;1.90;99.90;;;;;;5041581;28;20513;-76
2024/01/05 06:52:43;;;;;;;15.88;9.70;;;1.90;99.90;;;;;;5034048;28;20029;-75
2024/01/05 06:55:09;;;;;;;18.60;9.43;;;1.90;99.90;;;;;;5038327;28;20544;-76
2024/01/05 06:57:35;;;;;;;17.83;9.98;;;1.90;99.90;;;;;;5041950;28;20052;-76
2024/01/05 07:00:11;;;;;;;14.18;8.82;;;1.80;99.90;;;;;;5039689;28;20044;-76
2024/01/05 07:02:37;;;;;;;18.75;10.18;;;1.90;99.90;;;;;;5042548;28;20021;-76
2024/01/05 07:05:04;;;;;;;15.15;9.68;;;1.80;99.90;;;;;;5046790;28;20025;-74
2024/01/05 07:07:30;;;;;;;16.63;9.20;;;1.80;99.90;;;;;;5049122;28;20025;-75
2024/01/05 07:09:56;;;;;;;16.63;8.75;;;1.80;99.90;;;;;;5043567;28;20025;-75
2024/01/05 07:12:22;;;;;;;64.03;22.77;;;1.90;99.90;;;;;;5046522;28;20022;-74
2024/01/05 07:14:48;;;;;;;17.25;9.52;;;1.80;99.90;;;;;;5040647;28;20028;-74
2024/01/05 07:17:13;;;;;;;14.70;8.90;;;1.90;99.90;;;;;;5040240;28;20048;-74
2024/01/05 07:19:40;;;;;;;13.40;8.50;;;1.90;99.90;;;;;;5031890;28;20030;-73
2024/01/05 07:22:06;;;;;;;14.43;9.32;;;1.80;99.90;;;;;;5032638;28;20025;-72
2024/01/05 07:24:33;;;;;;;17.52;9.35;;;1.80;99.90;;;;;;5033162;28;20021;-73
2024/01/05 07:26:59;;;;;;;15.73;8.32;;;1.90;99.90;;;;;;5033559;28;20029;-73
2024/01/05 07:29:24;;;;;;;14.20;9.30;;;1.90;99.90;;;;;;5045916;28;20018;-74
2024/01/05 07:31:50;;;;;;;15.35;8.93;;;1.80;99.90;;;;;;5056102;28;20029;-73
2024/01/05 07:34:15;;;;;;;20.02;8.02;;;1.90;99.90;;;;;;5053779;28;20032;-74
2024/01/05 07:36:42;;;;;;;16.65;9.02;;;1.80;99.90;;;;;;5050786;28;20041;-73
2024/01/05 07:39:11;;;;;;;17.88;9.50;;;1.80;99.90;;;;;;5032783;28;20079;-74
2024/01/05 07:41:38;;;;;;;14.15;8.18;;;1.80;99.90;;;;;;5032427;28;20515;-74
2024/01/05 07:44:03;;;;;;;13.10;8.35;;;1.80;99.90;;;;;;5032251;28;20032;-76
2024/01/05 07:46:30;;;;;;;14.93;8.95;;;1.80;99.90;;;;;;5033250;28;20033;-75
2024/01/05 07:48:56;;;;;;;15.15;9.18;;;1.80;99.90;;;;;;5018172;28;20030;-74
2024/01/05 07:51:22;;;;;;;20.38;8.63;;;1.70;99.90;;;;;;5019286;28;20072;-75
2024/01/05 07:53:48;;;;;;;14.50;8.20;;;1.70;99.90;;;;;;5034848;28;20029;-74
2024/01/05 07:56:14;;;;;;;14.85;8.77;;;1.80;99.90;;;;;;5020024;28;20499;-74
2024/01/05 07:58:40;;;;;;;13.70;8.77;;;1.80;99.90;;;;;;5015209;28;20029;-75
2024/01/05 08:01:06;;;;;;;15.93;8.98;;;1.70;99.90;;;;;;5037726;28;20025;-75
2024/01/05 08:03:31;;;;;;;13.57;8.63;;;1.70;99.90;;;;;;5036212;28;20511;-74
2024/01/05 08:05:57;;;;;;;16.70;8.70;;;1.80;99.90;;;;;;5031748;28;20559;-74
2024/01/05 08:08:24;;;;;;;13.77;8.13;;;1.80;99.90;;;;;;5031628;28;20493;-75
2024/01/05 08:10:50;;;;;;;14.27;8.13;;;1.80;99.90;;;;;;5033266;28;20083;-74
2024/01/05 08:13:15;;;;;;;15.43;8.00;;;1.80;99.90;;;;;;5016680;28;20439;-74
2024/01/05 08:15:41;;;;;;;14.45;8.25;;;1.70;99.90;;;;;;5014634;28;20034;-75
2024/01/05 08:18:06;;;;;;;16.58;9.65;;;1.80;99.90;;;;;;5014192;28;20029;-75
2024/01/05 08:20:32;;;;;;;15.50;8.18;;;1.80;99.90;;;;;;5032496;28;20400;-75
2024/01/05 08:22:57;;;;;;;14.65;8.32;;;1.80;99.90;;;;;;5031195;28;20040;-74
2024/01/05 08:25:23;;;;;;;18.55;8.52;;;1.80;99.90;;;;;;5036989;28;20025;-76
2024/01/05 08:27:49;;;;;;;13.05;8.70;;;1.80;99.90;;;;;;5035496;28;20472;-78
2024/01/05 08:30:14;;;;;;;15.55;9.07;;;1.80;99.90;;;;;;5034770;28;20022;-74
2024/01/05 08:32:43;;;;;;;13.80;8.15;;;1.80;99.90;;;;;;5035061;28;20041;-73
2024/01/05 08:35:09;;;;;;;14.50;9.00;;;1.80;99.90;;;;;;5033760;28;20038;-73
2024/01/05 08:37:34;;;;;;;12.93;8.45;;;1.70;99.90;;;;;;5032174;28;20499;-74
2024/01/05 08:40:01;;;;;;;12.48;7.85;;;1.80;99.90;;;;;;5031942;28;20571;-74
2024/01/05 08:42:27;;;;;;;13.93;8.60;;;1.80;99.90;;;;;;5032372;28;20383;-74
2024/01/05 08:44:53;;;;;;;18.73;8.32;;;1.80;99.90;;;;;;5032680;28;20017;-74
2024/01/05 08:47:19;;;;;;;14.13;8.80;;;1.70;99.90;;;;;;5032759;28;20028;-74
2024/01/05 08:49:44;;;;;;;16.05;7.90;;;1.80;99.90;;;;;;5031789;28;20075;-72
2024/01/05 08:52:10;;;;;;;14.98;7.65;;;1.80;99.90;;;;;;5036195;28;20036;-75
2024/01/05 08:54:39;;;;;;;12.02;7.53;;;1.80;99.90;;;;;;5042495;28;20021;-74
2024/01/05 08:57:06;;;;;;;18.67;7.95;;;1.70;99.90;;;;;;5038815;28;20209;-74
2024/01/05 08:59:33;;;;;;;13.32;7.28;;;1.80;99.90;;;;;;5030505;28;20018;-74
2024/01/05 09:01:59;;;;;;;13.73;7.70;;;1.80;99.90;;;;;;5033679;28;20021;-73
2024/01/05 09:04:25;;;;;;;11.38;7.40;;;1.80;99.90;;;;;;5040717;28;20054;-73
2024/01/05 09:06:51;;;;;;;16.88;7.65;;;1.80;99.90;;;;;;5002649;28;20065;-73
2024/01/05 09:09:16;;;;;;;15.07;7.88;;;1.80;99.90;;;;;;5031154;28;20033;-73
2024/01/05 09:11:42;;;;;;;15.30;7.22;;;1.90;99.90;;;;;;5031278;28;20036;-74
2024/01/05 09:14:07;;;;;;;14.02;7.32;;;1.90;99.90;;;;;;5036549;28;20025;-74
2024/01/05 09:16:33;;;;;;;13.23;6.90;;;1.90;99.90;;;;;;5051306;28;20028;-76
2024/01/05 09:18:59;;;;;;;12.85;6.07;;;1.80;99.90;;;;;;5051584;28;20021;-72
2024/01/05 09:21:24;;;;;;;9.32;6.45;;;1.80;99.90;;;;;;5036451;28;20046;-75
2024/01/05 09:23:50;;;;;;;10.10;6.75;;;1.80;99.90;;;;;;5054671;28;20037;-75
2024/01/05 09:26:16;;;;;;;11.57;6.05;;;1.80;99.90;;;;;;5052691;28;20487;-74
2024/01/05 09:28:42;;;;;;;10.77;5.85;;;1.80;99.90;;;;;;5041208;28;20021;-74
2024/01/05 09:31:11;;;;;;;11.15;6.10;;;1.80;99.90;;;;;;5037167;28;20021;-75
2024/01/05 09:33:37;;;;;;;12.13;6.13;;;1.70;99.90;;;;;;5054393;28;20033;-75
2024/01/05 09:36:03;;;;;;;11.38;6.22;;;1.80;99.90;;;;;;5033540;28;20111;-74
2024/01/05 09:38:30;;;;;;;9.73;5.85;;;1.90;99.90;;;;;;5051078;28;20433;-76
2024/01/05 09:40:55;;;;;;;16.30;6.60;;;1.90;99.90;;;;;;5052042;28;20029;-73
2024/01/05 09:43:27;;;;;;;9.48;5.85;;;1.90;99.90;;;;;;5054051;28;20424;-76
2024/01/05 09:45:55;;;;;;;9.05;5.47;;;1.90;99.90;;;;;;5036834;28;20021;-75
2024/01/05 09:48:22;;;;;;;9.52;6.07;;;2.00;99.90;;;;;;5056450;28;20438;-79
2024/01/05 09:50:52;;;;;;;9.93;5.43;;;1.90;99.90;;;;;;5056225;28;20040;-77
2024/01/05 09:53:19;;;;;;;13.45;7.25;;;1.90;99.90;;;;;;5055384;28;20492;-75
2024/01/05 09:55:48;;;;;;;10.45;5.72;;;1.90;99.90;;;;;;5055318;28;20104;-78
2024/01/05 09:58:17;;;;;;;8.07;5.22;;;1.90;99.90;;;;;;5055507;28;20508;-77
2024/01/05 10:00:46;;;;;;;16.45;6.47;;;1.90;99.90;;;;;;5055608;28;20103;-77
2024/01/05 10:03:20;;;;;;;11.25;5.45;;;2.00;99.90;;;;;;5055026;28;20082;-78
2024/01/05 10:05:46;;;;;;;9.38;5.70;;;1.90;99.90;;;;;;5054991;28;20485;-77
2024/01/05 10:08:13;;;;;;;10.43;5.75;;;2.00;99.90;;;;;;5055103;28;20048;-76
2024/01/05 10:10:47;;;;;;;10.30;4.95;;;1.90;99.90;;;;;;5054816;28;20436;-73
2024/01/05 10:13:13;;;;;;;9.80;4.70;;;1.80;99.90;;;;;;5054090;28;20032;-74
2024/01/05 10:15:55;;;;;;;10.30;5.30;;;1.80;99.90;;;;;;5054333;28;20027;-73
2024/01/05 10:18:21;;;;;;;7.78;4.47;;;1.80;99.90;;;;;;5055856;28;20472;-75
2024/01/05 10:20:47;;;;;;;10.18;4.85;;;1.80;99.90;;;;;;5055117;28;20071;-77
2024/01/05 10:23:15;;;;;;;8.25;4.93;;;1.80;99.90;;;;;;5055368;28;20057;-75
2024/01/05 10:25:41;;;;;;;8.70;4.75;;;1.80;99.90;;;;;;5054163;28;20060;-73
2024/01/05 10:28:21;;;;;;;19.70;5.90;;;1.90;99.90;;;;;;5053919;28;20060;-73
2024/01/05 10:30:46;;;;;;;8.13;4.65;;;1.90;99.90;;;;;;5055129;28;20074;-78
2024/01/05 10:33:12;;;;;;;11.75;5.20;;;1.80;99.90;;;;;;5054433;28;20613;-76
2024/01/05 10:35:38;;;;;;;10.35;4.65;;;1.90;99.90;;;;;;5053572;28;20029;-76
2024/01/05 10:38:08;;;;;;;8.55;4.90;;;1.80;99.90;;;;;;5053758;28;20029;-75
2024/01/05 10:40:34;;;;;;;8.63;4.90;;;1.80;99.90;;;;;;5053511;28;20151;-74
2024/01/05 10:43:17;;;;;;;6.97;4.70;;;1.80;99.90;;;;;;5053431;28;20043;-73
2024/01/05 10:45:44;;;;;;;9.18;4.75;;;1.80;99.90;;;;;;5053263;28;20419;-73
2024/01/05 10:48:13;;;;;;;13.07;7.63;;;1.80;99.90;;;;;;5053671;28;20025;-73
2024/01/05 10:50:43;;;;;;;12.30;5.97;;;1.80;99.90;;;;;;5053160;28;20459;-74
2024/01/05 10:53:09;;;;;;;8.60;4.90;;;1.80;99.90;;;;;;5052088;28;20025;-74
2024/01/05 10:55:36;;;;;;;8.93;5.03;;;1.90;99.90;;;;;;5053425;28;20104;-74
2024/01/05 10:58:02;;;;;;;13.80;7.30;;;1.90;99.90;;;;;;5053383;28;20078;-74
2024/01/05 11:00:28;;;;;;;8.05;4.55;;;1.90;99.90;;;;;;5053400;28;20028;-75
2024/01/05 11:03:06;;;;;;;8.65;4.90;;;1.90;99.90;;;;;;5052927;28;20017;-74
2024/01/05 11:05:32;;;;;;;9.40;5.18;;;1.80;99.90;;;;;;5052875;28;20021;-74
2024/01/05 11:08:01;;;;;;;11.27;4.93;;;1.80;99.90;;;;;;5053172;28;20032;-75
2024/01/05 11:10:45;;;;;;;10.70;4.97;;;1.80;99.90;;;;;;5053333;28;20510;-76
2024/01/05 11:13:39;;;;;;;10.07;5.30;;;1.70;99.90;;;;;;5034238;28;20362;-74
2024/01/05 11:16:41;;;;;;;8.75;5.22;;;1.70;99.90;;;;;;4999206;28;20442;-74
2024/01/05 11:19:22;;;;;;;12.70;4.93;;;1.70;99.90;;;;;;5013039;28;20116;-74
2024/01/05 11:22:05;;;;;;;8.38;5.40;;;1.60;99.90;;;;;;5030830;28;20028;-74
2024/01/05 11:24:33;;;;;;;9.50;5.13;;;1.70;99.90;;;;;;5029756;28;20440;-73
2024/01/05 11:26:59;;;;;;;11.18;5.22;;;1.70;99.90;;;;;;5030071;28;20365;-74
2024/01/05 11:29:48;;;;;;;8.73;4.93;;;1.80;99.90;;;;;;5012529;28;20108;-74
2024/01/05 11:32:42;;;;;;;7.43;4.47;;;1.80;99.90;;;;;;5030530;28;20774;-75
2024/01/05 11:35:41;;;;;;;10.77;5.07;;;1.80;99.90;;;;;;5030270;28;20041;-75
2024/01/05 11:38:27;;;;;;;9.35;4.95;;;1.70;99.90;;;;;;5024431;28;20084;-75
2024/01/05 11:40:53;;;;;;;8.75;3.97;;;1.70;99.90;;;;;;5032924;28;20040;-75
2024/01/05 11:43:27;;;;;;;6.90;4.35;;;1.70;99.90;;;;;;5030149;28;20022;-75
2024/01/05 11:45:53;;;;;;;8.93;4.13;;;1.60;99.90;;;;;;5030863;28;20026;-76
2024/01/05 11:48:34;;;;;;;7.40;4.00;;;1.60;99.90;;;;;;5032276;28;20018;-72
2024/01/05 11:51:06;;;;;;;9.73;4.35;;;1.50;99.90;;;;;;5013771;28;20537;-77
2024/01/05 11:53:32;;;;;;;7.32;4.03;;;1.60;99.90;;;;;;5029711;28;20025;-75
2024/01/05 11:55:59;;;;;;;9.32;4.60;;;1.60;99.90;;;;;;5033174;28;20025;-76
2024/01/05 11:58:32;;;;;;;6.63;4.25;;;1.50;99.90;;;;;;5030166;28;20423;-75
2024/01/05 12:01:02;;;;;;;10.48;4.38;;;1.50;99.90;;;;;;5028343;28;20093;-74
2024/01/05 12:03:30;;;;;;;7.28;4.22;;;1.50;99.90;;;;;;5027223;28;20067;-74
2024/01/05 12:06:06;;;;;;;9.70;4.40;;;1.50;99.90;;;;;;5028737;28;20029;-73
2024/01/05 12:08:32;;;;;;;6.80;4.45;;;1.50;99.90;;;;;;5028220;28;20473;-73
2024/01/05 12:11:08;;;;;;;7.68;4.38;;;1.50;99.90;;;;;;5030062;28;20086;-72
2024/01/05 12:13:35;;;;;;;7.85;4.07;;;1.50;99.90;;;;;;5030778;28;20156;-75
2024/01/05 12:16:02;;;;;;;5.45;3.95;;;1.40;99.90;;;;;;5029582;28;20082;-73
2024/01/05 12:18:33;;;;;;;8.75;3.88;;;1.40;99.90;;;;;;5029542;28;20131;-74
2024/01/05 12:21:02;;;;;;;6.05;4.00;;;1.40;99.90;;;;;;5029537;28;20025;-73
2024/01/05 12:23:29;;;;;;;6.00;3.70;;;1.40;99.90;;;;;;5031315;28;20026;-74
2024/01/05 12:26:06;;;;;;;10.38;3.97;;;1.40;99.90;;;;;;5032385;28;20033;-74
2024/01/05 12:28:34;;;;;;;7.28;3.85;;;1.40;99.90;;;;;;5032656;28;20368;-74
2024/01/05 12:31:00;;;;;;;8.20;4.65;;;1.40;99.90;;;;;;5029619;28;20075;-74
2024/01/05 12:33:27;;;;;;;10.15;3.80;;;1.40;99.90;;;;;;5028104;28;20045;-75
2024/01/05 12:35:53;;;;;;;5.53;3.47;;;1.40;99.90;;;;;;5029118;28;20087;-75
2024/01/05 12:38:23;;;;;;;5.90;3.85;;;1.40;99.90;;;;;;5029028;28;20021;-74
2024/01/05 12:40:48;;;;;;;12.43;4.28;;;1.40;99.90;;;;;;5035433;28;20033;-73
2024/01/05 12:43:16;;;;;;;7.00;3.70;;;1.40;99.90;;;;;;5035946;28;20029;-73
2024/01/05 12:45:43;;;;;;;11.75;4.05;;;1.40;99.90;;;;;;5034450;28;20029;-74